sensor_id;sensor_type;location;lat;lon;timestamp;pressure;altitude;pressure_sealevel;temperature;humidity
9740;BME280;4909;42.680;26.324;2023-04-08T00:00:43;98912.41;;;10.51;79.67
9740;BME280;4909;42.680;26.324;2023-04-08T00:03:10;98916.03;;;10.50;80.44
9740;BME280;4909;42.680;26.324;2023-04-08T00:05:36;98912.50;;;10.49;82.35
9740;BME280;4909;42.680;26.324;2023-04-08T00:08:04;98918.72;;;10.48;83.75
9740;BME280;4909;42.680;26.324;2023-04-08T00:10:31;98923.47;;;10.40;85.93
9740;BME280;4909;42.680;26.324;2023-04-08T00:12:58;98909.25;;;10.41;88.47
9740;BME280;4909;42.680;26.324;2023-04-08T00:15:26;98910.44;;;10.34;88.20
9740;BME280;4909;42.680;26.324;2023-04-08T00:17:53;98907.91;;;10.31;88.69
9740;BME280;4909;42.680;26.324;2023-04-08T00:20:21;98908.84;;;10.30;90.17
9740;BME280;4909;42.680;26.324;2023-04-08T00:22:48;98906.59;;;9.96;91.52
9740;BME280;4909;42.680;26.324;2023-04-08T00:25:15;98890.59;;;9.97;91.21
9740;BME280;4909;42.680;26.324;2023-04-08T00:27:41;98895.97;;;9.96;91.42
9740;BME280;4909;42.680;26.324;2023-04-08T00:30:08;98901.34;;;10.18;91.39
9740;BME280;4909;42.680;26.324;2023-04-08T00:32:37;98885.53;;;10.15;90.82
9740;BME280;4909;42.680;26.324;2023-04-08T00:35:04;98873.22;;;10.12;90.85
9740;BME280;4909;42.680;26.324;2023-04-08T00:37:31;98879.16;;;9.97;90.81
9740;BME280;4909;42.680;26.324;2023-04-08T00:39:59;98883.97;;;10.09;90.39
9740;BME280;4909;42.680;26.324;2023-04-08T00:42:26;98865.88;;;9.97;91.09
9740;BME280;4909;42.680;26.324;2023-04-08T00:44:55;98873.56;;;9.81;91.30
9740;BME280;4909;42.680;26.324;2023-04-08T00:47:22;98877.78;;;9.87;91.25
9740;BME280;4909;42.680;26.324;2023-04-08T00:49:50;98882.13;;;9.88;90.84
9740;BME280;4909;42.680;26.324;2023-04-08T00:52:17;98889.25;;;9.87;90.79
9740;BME280;4909;42.680;26.324;2023-04-08T00:54:44;98876.00;;;9.87;90.93
9740;BME280;4909;42.680;26.324;2023-04-08T00:57:11;98878.78;;;9.83;91.71
9740;BME280;4909;42.680;26.324;2023-04-08T00:59:37;98877.06;;;9.82;93.50
9740;BME280;4909;42.680;26.324;2023-04-08T01:02:11;98885.06;;;9.80;92.18
9740;BME280;4909;42.680;26.324;2023-04-08T01:04:45;98877.28;;;9.76;94.09
9740;BME280;4909;42.680;26.324;2023-04-08T01:07:17;98874.75;;;9.96;94.29
9740;BME280;4909;42.680;26.324;2023-04-08T01:09:47;98839.44;;;9.72;93.94
9740;BME280;4909;42.680;26.324;2023-04-08T01:12:19;98874.94;;;9.91;94.13
9740;BME280;4909;42.680;26.324;2023-04-08T01:14:47;98881.59;;;9.78;97.06
9740;BME280;4909;42.680;26.324;2023-04-08T01:17:15;98884.50;;;9.72;99.03
9740;BME280;4909;42.680;26.324;2023-04-08T01:19:45;98888.03;;;9.96;99.27
9740;BME280;4909;42.680;26.324;2023-04-08T01:22:24;98887.44;;;9.88;99.78
9740;BME280;4909;42.680;26.324;2023-04-08T01:24:58;98864.94;;;9.98;97.22
9740;BME280;4909;42.680;26.324;2023-04-08T01:27:30;98887.84;;;10.00;96.53
9740;BME280;4909;42.680;26.324;2023-04-08T01:29:58;98874.94;;;9.91;97.90
9740;BME280;4909;42.680;26.324;2023-04-08T01:32:27;98884.19;;;10.03;98.82
9740;BME280;4909;42.680;26.324;2023-04-08T01:34:55;98878.72;;;10.08;97.96
9740;BME280;4909;42.680;26.324;2023-04-08T01:37:22;98869.38;;;9.97;97.71
9740;BME280;4909;42.680;26.324;2023-04-08T01:39:50;98881.38;;;10.08;97.41
9740;BME280;4909;42.680;26.324;2023-04-08T01:42:17;98881.69;;;10.23;97.88
9740;BME280;4909;42.680;26.324;2023-04-08T01:44:46;98871.44;;;10.13;98.62
9740;BME280;4909;42.680;26.324;2023-04-08T01:47:14;98875.16;;;10.09;98.74
9740;BME280;4909;42.680;26.324;2023-04-08T01:49:41;98864.06;;;9.97;97.89
9740;BME280;4909;42.680;26.324;2023-04-08T01:52:09;98875.72;;;9.93;98.98
9740;BME280;4909;42.680;26.324;2023-04-08T01:54:36;98880.66;;;9.81;100.00
9740;BME280;4909;42.680;26.324;2023-04-08T01:57:04;98883.69;;;9.70;100.00
9740;BME280;4909;42.680;26.324;2023-04-08T01:59:34;98888.41;;;9.85;100.00
9740;BME280;4909;42.680;26.324;2023-04-08T02:02:07;98878.63;;;9.87;99.85
9740;BME280;4909;42.680;26.324;2023-04-08T02:04:35;98850.75;;;9.77;99.39
9740;BME280;4909;42.680;26.324;2023-04-08T02:07:03;98892.28;;;10.00;99.64
9740;BME280;4909;42.680;26.324;2023-04-08T02:09:30;98877.84;;;10.07;99.12
9740;BME280;4909;42.680;26.324;2023-04-08T02:11:57;98889.06;;;9.92;98.60
9740;BME280;4909;42.680;26.324;2023-04-08T02:14:24;98883.81;;;9.67;98.94
9740;BME280;4909;42.680;26.324;2023-04-08T02:16:53;98903.34;;;9.88;99.43
9740;BME280;4909;42.680;26.324;2023-04-08T02:19:28;98898.72;;;9.93;100.00
9740;BME280;4909;42.680;26.324;2023-04-08T02:22:01;98906.06;;;10.10;99.88
9740;BME280;4909;42.680;26.324;2023-04-08T02:24:31;98875.16;;;9.85;100.00
9740;BME280;4909;42.680;26.324;2023-04-08T02:26:59;98898.63;;;10.19;99.34
9740;BME280;4909;42.680;26.324;2023-04-08T02:29:30;98908.63;;;9.88;99.47
9740;BME280;4909;42.680;26.324;2023-04-08T02:32:00;98898.97;;;9.87;99.39
9740;BME280;4909;42.680;26.324;2023-04-08T02:34:29;98876.66;;;9.69;99.23
9740;BME280;4909;42.680;26.324;2023-04-08T02:36:56;98898.16;;;9.85;99.67
9740;BME280;4909;42.680;26.324;2023-04-08T02:39:29;98900.78;;;10.08;99.29
9740;BME280;4909;42.680;26.324;2023-04-08T02:41:56;98901.41;;;10.16;98.60
9740;BME280;4909;42.680;26.324;2023-04-08T02:44:23;98901.88;;;10.02;99.42
9740;BME280;4909;42.680;26.324;2023-04-08T02:46:50;98894.75;;;10.04;99.19
9740;BME280;4909;42.680;26.324;2023-04-08T02:49:17;98903.34;;;10.11;99.35
9740;BME280;4909;42.680;26.324;2023-04-08T02:51:45;98905.00;;;10.14;99.28
9740;BME280;4909;42.680;26.324;2023-04-08T02:54:12;98907.88;;;10.08;99.28
9740;BME280;4909;42.680;26.324;2023-04-08T02:56:39;98902.53;;;10.09;99.97
9740;BME280;4909;42.680;26.324;2023-04-08T02:59:06;98910.31;;;10.14;99.34
9740;BME280;4909;42.680;26.324;2023-04-08T03:01:33;98913.69;;;10.19;99.92
9740;BME280;4909;42.680;26.324;2023-04-08T03:04:00;98919.19;;;10.13;98.01
9740;BME280;4909;42.680;26.324;2023-04-08T03:06:27;98908.06;;;10.03;97.45
9740;BME280;4909;42.680;26.324;2023-04-08T03:08:55;98913.84;;;9.91;98.13
9740;BME280;4909;42.680;26.324;2023-04-08T03:11:22;98918.44;;;9.86;97.57
9740;BME280;4909;42.680;26.324;2023-04-08T03:13:48;98908.28;;;9.74;98.22
9740;BME280;4909;42.680;26.324;2023-04-08T03:16:15;98909.63;;;9.85;97.43
9740;BME280;4909;42.680;26.324;2023-04-08T03:18:42;98911.81;;;9.74;96.22
9740;BME280;4909;42.680;26.324;2023-04-08T03:21:09;98907.31;;;9.76;96.30
9740;BME280;4909;42.680;26.324;2023-04-08T03:23:35;98911.28;;;9.65;96.57
9740;BME280;4909;42.680;26.324;2023-04-08T03:26:04;98896.25;;;9.40;98.08
9740;BME280;4909;42.680;26.324;2023-04-08T03:28:30;98903.41;;;9.38;99.98
9740;BME280;4909;42.680;26.324;2023-04-08T03:30:57;98910.28;;;9.44;99.33
9740;BME280;4909;42.680;26.324;2023-04-08T03:33:25;98921.72;;;9.44;99.34
9740;BME280;4909;42.680;26.324;2023-04-08T03:35:52;98912.44;;;9.57;99.29
9740;BME280;4909;42.680;26.324;2023-04-08T03:38:19;98930.66;;;9.67;99.66
9740;BME280;4909;42.680;26.324;2023-04-08T03:40:46;98930.88;;;9.84;99.41
9740;BME280;4909;42.680;26.324;2023-04-08T03:43:14;98921.66;;;9.94;98.39
9740;BME280;4909;42.680;26.324;2023-04-08T03:45:43;98932.25;;;10.19;97.41
9740;BME280;4909;42.680;26.324;2023-04-08T03:48:10;98934.03;;;10.18;96.08
9740;BME280;4909;42.680;26.324;2023-04-08T03:50:37;98927.84;;;9.94;95.32
9740;BME280;4909;42.680;26.324;2023-04-08T03:53:04;98915.06;;;9.82;96.40
9740;BME280;4909;42.680;26.324;2023-04-08T03:55:30;98939.00;;;9.79;95.79
9740;BME280;4909;42.680;26.324;2023-04-08T03:57:57;98935.41;;;9.82;95.37
9740;BME280;4909;42.680;26.324;2023-04-08T04:00:25;98929.66;;;9.69;94.18
9740;BME280;4909;42.680;26.324;2023-04-08T04:02:52;98937.69;;;9.91;93.77
9740;BME280;4909;42.680;26.324;2023-04-08T04:05:20;98949.56;;;9.81;94.35
9740;BME280;4909;42.680;26.324;2023-04-08T04:07:47;98929.97;;;9.85;93.96
9740;BME280;4909;42.680;26.324;2023-04-08T04:10:13;98938.22;;;9.77;91.22
9740;BME280;4909;42.680;26.324;2023-04-08T04:12:40;98941.13;;;9.70;91.96
9740;BME280;4909;42.680;26.324;2023-04-08T04:15:10;98940.22;;;9.94;92.89
9740;BME280;4909;42.680;26.324;2023-04-08T04:17:38;98914.47;;;9.97;91.19
9740;BME280;4909;42.680;26.324;2023-04-08T04:20:06;98934.78;;;10.22;91.61
9740;BME280;4909;42.680;26.324;2023-04-08T04:22:32;98932.13;;;10.22;94.51
9740;BME280;4909;42.680;26.324;2023-04-08T04:24:59;98917.34;;;10.15;96.92
9740;BME280;4909;42.680;26.324;2023-04-08T04:27:26;98924.13;;;10.23;97.77
9740;BME280;4909;42.680;26.324;2023-04-08T04:29:53;98905.72;;;10.19;96.52
9740;BME280;4909;42.680;26.324;2023-04-08T04:32:19;98931.44;;;10.17;95.87
9740;BME280;4909;42.680;26.324;2023-04-08T04:34:48;98932.75;;;10.28;95.64
9740;BME280;4909;42.680;26.324;2023-04-08T04:37:14;98915.19;;;10.26;95.52
9740;BME280;4909;42.680;26.324;2023-04-08T04:39:41;98932.03;;;10.46;95.39
9740;BME280;4909;42.680;26.324;2023-04-08T04:42:08;98935.16;;;10.58;94.52
9740;BME280;4909;42.680;26.324;2023-04-08T04:44:35;98933.22;;;10.61;94.35
9740;BME280;4909;42.680;26.324;2023-04-08T04:47:01;98943.09;;;10.58;94.50
9740;BME280;4909;42.680;26.324;2023-04-08T04:49:28;98951.56;;;10.67;93.72
9740;BME280;4909;42.680;26.324;2023-04-08T04:51:56;98940.81;;;10.70;93.35
9740;BME280;4909;42.680;26.324;2023-04-08T04:54:23;98948.91;;;10.67;92.36
9740;BME280;4909;42.680;26.324;2023-04-08T04:56:50;98943.16;;;10.56;92.92
9740;BME280;4909;42.680;26.324;2023-04-08T04:59:17;98952.56;;;10.65;94.37
9740;BME280;4909;42.680;26.324;2023-04-08T05:01:43;98941.78;;;10.46;93.95
9740;BME280;4909;42.680;26.324;2023-04-08T05:04:10;98963.28;;;10.40;93.55
9740;BME280;4909;42.680;26.324;2023-04-08T05:06:37;98960.63;;;10.40;94.86
9740;BME280;4909;42.680;26.324;2023-04-08T05:09:05;98964.69;;;10.49;94.35
9740;BME280;4909;42.680;26.324;2023-04-08T05:11:32;98951.75;;;10.63;94.50
9740;BME280;4909;42.680;26.324;2023-04-08T05:13:58;98946.63;;;10.58;93.33
9740;BME280;4909;42.680;26.324;2023-04-08T05:16:25;98952.06;;;10.77;93.57
9740;BME280;4909;42.680;26.324;2023-04-08T05:18:52;98947.00;;;10.93;92.76
9740;BME280;4909;42.680;26.324;2023-04-08T05:21:19;98954.25;;;11.09;91.72
9740;BME280;4909;42.680;26.324;2023-04-08T05:23:45;98896.94;;;10.83;90.21
9740;BME280;4909;42.680;26.324;2023-04-08T05:26:14;98954.25;;;11.31;88.09
9740;BME280;4909;42.680;26.324;2023-04-08T05:28:40;98959.97;;;11.42;87.92
9740;BME280;4909;42.680;26.324;2023-04-08T05:31:07;98973.19;;;11.44;86.72
9740;BME280;4909;42.680;26.324;2023-04-08T05:33:36;98960.47;;;11.30;86.72
9740;BME280;4909;42.680;26.324;2023-04-08T05:36:03;98973.66;;;11.53;86.67
9740;BME280;4909;42.680;26.324;2023-04-08T05:38:29;98976.44;;;11.50;85.26
9740;BME280;4909;42.680;26.324;2023-04-08T05:40:56;98977.13;;;11.55;85.70
9740;BME280;4909;42.680;26.324;2023-04-08T05:43:24;98968.06;;;11.59;86.20
9740;BME280;4909;42.680;26.324;2023-04-08T05:45:51;98966.56;;;11.94;86.29
9740;BME280;4909;42.680;26.324;2023-04-08T05:48:18;98971.94;;;11.93;83.88
9740;BME280;4909;42.680;26.324;2023-04-08T05:50:44;98969.19;;;12.14;84.85
9740;BME280;4909;42.680;26.324;2023-04-08T05:53:13;98964.81;;;12.32;81.83
9740;BME280;4909;42.680;26.324;2023-04-08T05:55:39;98972.97;;;13.21;77.40
9740;BME280;4909;42.680;26.324;2023-04-08T05:58:06;98984.78;;;14.67;69.38
9740;BME280;4909;42.680;26.324;2023-04-08T06:00:34;98986.72;;;15.58;63.44
9740;BME280;4909;42.680;26.324;2023-04-08T06:03:01;98986.44;;;16.06;61.29
9740;BME280;4909;42.680;26.324;2023-04-08T06:05:28;98987.78;;;16.28;58.48
9740;BME280;4909;42.680;26.324;2023-04-08T06:07:55;98983.78;;;16.35;56.22
9740;BME280;4909;42.680;26.324;2023-04-08T06:10:22;98996.91;;;16.68;56.14
9740;BME280;4909;42.680;26.324;2023-04-08T06:12:49;98980.38;;;17.02;53.34
9740;BME280;4909;42.680;26.324;2023-04-08T06:15:16;98984.53;;;16.93;51.71
9740;BME280;4909;42.680;26.324;2023-04-08T06:17:44;98984.00;;;16.74;52.05
9740;BME280;4909;42.680;26.324;2023-04-08T06:20:11;98985.41;;;16.37;54.87
9740;BME280;4909;42.680;26.324;2023-04-08T06:22:37;98994.94;;;16.98;55.70
9740;BME280;4909;42.680;26.324;2023-04-08T06:25:05;98985.09;;;16.42;55.93
9740;BME280;4909;42.680;26.324;2023-04-08T06:27:32;98980.91;;;15.20;58.84
9740;BME280;4909;42.680;26.324;2023-04-08T06:29:59;98979.84;;;15.38;57.55
9740;BME280;4909;42.680;26.324;2023-04-08T06:32:25;98989.16;;;15.15;58.08
9740;BME280;4909;42.680;26.324;2023-04-08T06:34:54;98991.69;;;15.03;56.68
9740;BME280;4909;42.680;26.324;2023-04-08T06:37:20;98987.44;;;15.30;55.41
9740;BME280;4909;42.680;26.324;2023-04-08T06:39:47;98995.34;;;16.07;53.36
9740;BME280;4909;42.680;26.324;2023-04-08T06:42:14;99001.78;;;16.61;49.67
9740;BME280;4909;42.680;26.324;2023-04-08T06:44:41;98994.72;;;16.60;46.67
9740;BME280;4909;42.680;26.324;2023-04-08T06:47:07;98998.53;;;16.84;47.98
9740;BME280;4909;42.680;26.324;2023-04-08T06:49:34;99007.41;;;17.26;47.16
9740;BME280;4909;42.680;26.324;2023-04-08T06:52:03;99004.72;;;17.26;46.63
9740;BME280;4909;42.680;26.324;2023-04-08T06:54:31;99006.25;;;17.30;45.99
9740;BME280;4909;42.680;26.324;2023-04-08T06:56:57;99014.25;;;17.44;46.32
9740;BME280;4909;42.680;26.324;2023-04-08T06:59:24;99012.31;;;16.78;45.17
9740;BME280;4909;42.680;26.324;2023-04-08T07:01:51;99008.53;;;15.66;49.94
9740;BME280;4909;42.680;26.324;2023-04-08T07:04:18;99005.66;;;15.08;52.16
9740;BME280;4909;42.680;26.324;2023-04-08T07:06:45;98996.09;;;15.65;50.68
9740;BME280;4909;42.680;26.324;2023-04-08T07:09:13;99016.09;;;16.46;49.84
9740;BME280;4909;42.680;26.324;2023-04-08T07:11:39;99019.78;;;16.45;49.01
9740;BME280;4909;42.680;26.324;2023-04-08T07:14:06;99020.38;;;16.64;47.45
9740;BME280;4909;42.680;26.324;2023-04-08T07:16:33;99020.72;;;16.44;48.89
9740;BME280;4909;42.680;26.324;2023-04-08T07:19:00;99027.03;;;16.29;49.67
9740;BME280;4909;42.680;26.324;2023-04-08T07:21:27;99035.88;;;16.01;49.91
9740;BME280;4909;42.680;26.324;2023-04-08T07:23:55;99021.41;;;15.59;51.24
9740;BME280;4909;42.680;26.324;2023-04-08T07:26:23;99038.50;;;15.57;52.70
9740;BME280;4909;42.680;26.324;2023-04-08T07:28:50;99037.06;;;15.81;52.21
9740;BME280;4909;42.680;26.324;2023-04-08T07:31:17;99018.16;;;15.98;51.03
9740;BME280;4909;42.680;26.324;2023-04-08T07:33:45;99010.06;;;15.70;51.36
9740;BME280;4909;42.680;26.324;2023-04-08T07:36:12;99001.63;;;15.62;51.47
9740;BME280;4909;42.680;26.324;2023-04-08T07:38:40;99027.41;;;16.51;50.30
9740;BME280;4909;42.680;26.324;2023-04-08T07:41:06;99029.69;;;17.00;49.68
9740;BME280;4909;42.680;26.324;2023-04-08T07:43:34;99021.94;;;16.95;49.28
9740;BME280;4909;42.680;26.324;2023-04-08T07:46:02;99028.28;;;16.94;49.19
9740;BME280;4909;42.680;26.324;2023-04-08T07:48:29;99023.03;;;16.50;50.58
9740;BME280;4909;42.680;26.324;2023-04-08T07:50:56;99030.56;;;16.58;50.61
9740;BME280;4909;42.680;26.324;2023-04-08T07:53:23;99032.34;;;17.28;49.81
9740;BME280;4909;42.680;26.324;2023-04-08T07:55:52;99040.78;;;17.22;47.80
9740;BME280;4909;42.680;26.324;2023-04-08T07:58:18;99048.31;;;17.70;47.10
9740;BME280;4909;42.680;26.324;2023-04-08T08:00:47;99029.41;;;18.37;47.13
9740;BME280;4909;42.680;26.324;2023-04-08T08:03:13;99046.88;;;20.13;42.51
9740;BME280;4909;42.680;26.324;2023-04-08T08:05:40;99037.66;;;19.33;42.55
9740;BME280;4909;42.680;26.324;2023-04-08T08:08:07;99045.47;;;19.96;43.14
9740;BME280;4909;42.680;26.324;2023-04-08T08:10:36;99046.88;;;20.59;40.83
9740;BME280;4909;42.680;26.324;2023-04-08T08:13:03;99035.09;;;20.14;40.98
9740;BME280;4909;42.680;26.324;2023-04-08T08:15:29;99042.56;;;20.46;40.26
9740;BME280;4909;42.680;26.324;2023-04-08T08:17:58;99036.63;;;19.94;41.74
9740;BME280;4909;42.680;26.324;2023-04-08T08:20:25;99035.22;;;19.78;42.43
9740;BME280;4909;42.680;26.324;2023-04-08T08:22:52;99040.09;;;19.49;41.85
9740;BME280;4909;42.680;26.324;2023-04-08T08:25:19;99044.22;;;19.66;42.08
9740;BME280;4909;42.680;26.324;2023-04-08T08:27:46;99042.75;;;19.25;42.34
9740;BME280;4909;42.680;26.324;2023-04-08T08:30:13;99037.94;;;19.54;42.76
9740;BME280;4909;42.680;26.324;2023-04-08T08:32:40;99033.88;;;19.36;42.53
9740;BME280;4909;42.680;26.324;2023-04-08T08:35:08;99016.47;;;19.65;42.76
9740;BME280;4909;42.680;26.324;2023-04-08T08:37:35;99026.84;;;20.39;40.29
9740;BME280;4909;42.680;26.324;2023-04-08T08:40:02;99026.88;;;20.51;40.46
9740;BME280;4909;42.680;26.324;2023-04-08T08:42:29;99020.28;;;20.99;39.75
9740;BME280;4909;42.680;26.324;2023-04-08T08:44:56;99016.13;;;19.81;40.85
9740;BME280;4909;42.680;26.324;2023-04-08T08:47:23;99008.28;;;19.30;43.19
9740;BME280;4909;42.680;26.324;2023-04-08T08:49:50;99014.84;;;19.02;43.43
9740;BME280;4909;42.680;26.324;2023-04-08T08:52:18;99022.75;;;18.55;45.33
9740;BME280;4909;42.680;26.324;2023-04-08T08:54:46;99022.63;;;18.44;44.68
9740;BME280;4909;42.680;26.324;2023-04-08T08:57:16;99016.75;;;17.06;47.66
9740;BME280;4909;42.680;26.324;2023-04-08T08:59:45;99005.91;;;16.67;50.21
9740;BME280;4909;42.680;26.324;2023-04-08T09:02:23;99014.09;;;16.92;49.52
9740;BME280;4909;42.680;26.324;2023-04-08T09:04:56;99009.81;;;16.61;49.67
9740;BME280;4909;42.680;26.324;2023-04-08T09:07:25;99009.22;;;17.25;49.09
9740;BME280;4909;42.680;26.324;2023-04-08T09:09:53;99010.66;;;16.90;49.94
9740;BME280;4909;42.680;26.324;2023-04-08T09:12:21;98996.38;;;17.30;48.63
9740;BME280;4909;42.680;26.324;2023-04-08T09:14:48;99010.69;;;18.22;46.36
9740;BME280;4909;42.680;26.324;2023-04-08T09:17:15;99001.50;;;18.88;44.22
9740;BME280;4909;42.680;26.324;2023-04-08T09:20:06;99000.59;;;19.37;44.25
9740;BME280;4909;42.680;26.324;2023-04-08T09:22:54;98983.75;;;19.93;42.27
9740;BME280;4909;42.680;26.324;2023-04-08T09:25:22;98999.84;;;19.11;42.27
9740;BME280;4909;42.680;26.324;2023-04-08T09:27:49;99008.91;;;19.34;41.89
9740;BME280;4909;42.680;26.324;2023-04-08T09:30:17;99007.63;;;19.63;42.67
9740;BME280;4909;42.680;26.324;2023-04-08T09:32:47;99004.03;;;19.39;42.27
9740;BME280;4909;42.680;26.324;2023-04-08T09:35:16;98994.34;;;19.13;42.98
9740;BME280;4909;42.680;26.324;2023-04-08T09:37:44;99007.03;;;18.74;44.16
9740;BME280;4909;42.680;26.324;2023-04-08T09:40:12;99006.63;;;18.30;45.93
9740;BME280;4909;42.680;26.324;2023-04-08T09:42:44;99011.47;;;17.72;46.75
9740;BME280;4909;42.680;26.324;2023-04-08T09:45:13;98994.94;;;17.78;47.07
9740;BME280;4909;42.680;26.324;2023-04-08T09:47:45;98996.59;;;17.94;46.31
9740;BME280;4909;42.680;26.324;2023-04-08T09:50:19;98988.88;;;18.27;46.79
9740;BME280;4909;42.680;26.324;2023-04-08T09:52:54;98999.16;;;18.20;45.56
9740;BME280;4909;42.680;26.324;2023-04-08T09:55:23;98994.47;;;18.24;45.42
9740;BME280;4909;42.680;26.324;2023-04-08T09:57:57;98994.91;;;18.43;44.17
9740;BME280;4909;42.680;26.324;2023-04-08T10:00:30;99004.78;;;18.55;42.50
9740;BME280;4909;42.680;26.324;2023-04-08T10:03:01;98989.72;;;18.28;41.20
9740;BME280;4909;42.680;26.324;2023-04-08T10:05:31;98987.34;;;17.85;43.83
9740;BME280;4909;42.680;26.324;2023-04-08T10:08:00;98993.63;;;17.45;44.98
9740;BME280;4909;42.680;26.324;2023-04-08T10:10:26;99000.69;;;17.33;45.90
9740;BME280;4909;42.680;26.324;2023-04-08T10:12:53;98993.53;;;17.19;46.84
9740;BME280;4909;42.680;26.324;2023-04-08T10:15:22;98988.41;;;17.29;46.18
9740;BME280;4909;42.680;26.324;2023-04-08T10:17:49;98978.75;;;17.80;46.29
9740;BME280;4909;42.680;26.324;2023-04-08T10:20:41;98988.00;;;18.52;44.98
9740;BME280;4909;42.680;26.324;2023-04-08T10:23:10;98992.03;;;18.95;43.74
9740;BME280;4909;42.680;26.324;2023-04-08T10:25:39;98964.56;;;18.41;43.95
9740;BME280;4909;42.680;26.324;2023-04-08T10:28:24;98991.56;;;18.27;44.57
9740;BME280;4909;42.680;26.324;2023-04-08T10:30:52;98980.16;;;18.11;42.64
9740;BME280;4909;42.680;26.324;2023-04-08T10:33:22;98940.66;;;17.21;44.74
9740;BME280;4909;42.680;26.324;2023-04-08T10:35:52;98970.97;;;17.36;45.78
9740;BME280;4909;42.680;26.324;2023-04-08T10:38:21;98972.72;;;17.50;45.35
9740;BME280;4909;42.680;26.324;2023-04-08T10:40:48;98978.38;;;17.32;44.15
9740;BME280;4909;42.680;26.324;2023-04-08T10:43:15;98982.38;;;17.13;44.60
9740;BME280;4909;42.680;26.324;2023-04-08T10:45:43;98964.34;;;16.74;45.10
9740;BME280;4909;42.680;26.324;2023-04-08T10:48:12;98963.94;;;16.94;45.55
9740;BME280;4909;42.680;26.324;2023-04-08T10:50:39;98965.28;;;17.14;46.01
9740;BME280;4909;42.680;26.324;2023-04-08T10:53:06;98945.56;;;17.54;44.09
9740;BME280;4909;42.680;26.324;2023-04-08T10:55:35;98951.00;;;17.40;43.60
9740;BME280;4909;42.680;26.324;2023-04-08T10:58:06;98947.44;;;16.45;46.17
9740;BME280;4909;42.680;26.324;2023-04-08T11:00:34;98949.38;;;16.98;45.47
9740;BME280;4909;42.680;26.324;2023-04-08T11:03:02;98941.56;;;17.08;44.92
9740;BME280;4909;42.680;26.324;2023-04-08T11:05:28;98950.75;;;17.18;45.40
9740;BME280;4909;42.680;26.324;2023-04-08T11:07:55;98950.88;;;17.02;44.65
9740;BME280;4909;42.680;26.324;2023-04-08T11:10:23;98950.50;;;17.08;45.54
9740;BME280;4909;42.680;26.324;2023-04-08T11:12:53;98944.84;;;17.25;44.85
9740;BME280;4909;42.680;26.324;2023-04-08T11:15:20;98950.50;;;17.08;44.19
9740;BME280;4909;42.680;26.324;2023-04-08T11:17:47;98940.00;;;16.91;43.13
9740;BME280;4909;42.680;26.324;2023-04-08T11:20:14;98915.25;;;17.00;42.83
9740;BME280;4909;42.680;26.324;2023-04-08T11:22:41;98913.66;;;17.37;40.49
9740;BME280;4909;42.680;26.324;2023-04-08T11:25:09;98934.19;;;17.51;40.32
9740;BME280;4909;42.680;26.324;2023-04-08T11:27:37;98926.53;;;17.32;39.14
9740;BME280;4909;42.680;26.324;2023-04-08T11:30:07;98937.88;;;17.62;39.30
9740;BME280;4909;42.680;26.324;2023-04-08T11:32:35;98927.81;;;17.78;37.75
9740;BME280;4909;42.680;26.324;2023-04-08T11:35:04;98919.88;;;17.77;38.18
9740;BME280;4909;42.680;26.324;2023-04-08T11:37:38;98925.59;;;17.58;40.11
9740;BME280;4909;42.680;26.324;2023-04-08T11:40:07;98917.56;;;17.19;43.34
9740;BME280;4909;42.680;26.324;2023-04-08T11:42:34;98912.16;;;17.33;42.50
9740;BME280;4909;42.680;26.324;2023-04-08T11:45:10;98912.72;;;17.11;43.89
9740;BME280;4909;42.680;26.324;2023-04-08T11:47:38;98913.84;;;17.21;43.67
9740;BME280;4909;42.680;26.324;2023-04-08T11:50:06;98917.63;;;17.31;41.87
9740;BME280;4909;42.680;26.324;2023-04-08T11:52:43;98908.38;;;16.69;44.21
9740;BME280;4909;42.680;26.324;2023-04-08T11:55:10;98905.84;;;16.80;43.42
9740;BME280;4909;42.680;26.324;2023-04-08T11:57:37;98884.59;;;16.77;43.00
9740;BME280;4909;42.680;26.324;2023-04-08T12:00:05;98901.38;;;16.67;44.22
9740;BME280;4909;42.680;26.324;2023-04-08T12:02:35;98898.31;;;16.73;44.54
9740;BME280;4909;42.680;26.324;2023-04-08T12:05:02;98895.69;;;16.30;45.71
9740;BME280;4909;42.680;26.324;2023-04-08T12:07:29;98891.19;;;16.02;47.41
9740;BME280;4909;42.680;26.324;2023-04-08T12:09:55;98884.59;;;15.94;46.79
9740;BME280;4909;42.680;26.324;2023-04-08T12:12:22;98873.41;;;16.01;47.30
9740;BME280;4909;42.680;26.324;2023-04-08T12:14:49;98876.75;;;16.19;46.73
9740;BME280;4909;42.680;26.324;2023-04-08T12:17:15;98875.78;;;16.20;46.66
9740;BME280;4909;42.680;26.324;2023-04-08T12:19:44;98864.38;;;16.45;46.31
9740;BME280;4909;42.680;26.324;2023-04-08T12:22:11;98861.22;;;16.38;45.30
9740;BME280;4909;42.680;26.324;2023-04-08T12:24:37;98865.41;;;16.42;45.18
9740;BME280;4909;42.680;26.324;2023-04-08T12:27:04;98861.28;;;16.51;44.32
9740;BME280;4909;42.680;26.324;2023-04-08T12:29:31;98861.19;;;16.52;44.49
9740;BME280;4909;42.680;26.324;2023-04-08T12:31:58;98855.91;;;16.51;44.23
9740;BME280;4909;42.680;26.324;2023-04-08T12:34:25;98846.41;;;16.33;44.91
9740;BME280;4909;42.680;26.324;2023-04-08T12:36:53;98860.88;;;16.71;44.41
9740;BME280;4909;42.680;26.324;2023-04-08T12:39:20;98865.69;;;16.93;41.59
9740;BME280;4909;42.680;26.324;2023-04-08T12:41:47;98848.13;;;17.02;41.54
9740;BME280;4909;42.680;26.324;2023-04-08T12:44:14;98859.41;;;17.07;41.94
9740;BME280;4909;42.680;26.324;2023-04-08T12:46:41;98850.75;;;17.28;42.79
9740;BME280;4909;42.680;26.324;2023-04-08T12:49:07;98849.72;;;17.56;41.71
9740;BME280;4909;42.680;26.324;2023-04-08T12:51:34;98851.53;;;17.56;40.46
9740;BME280;4909;42.680;26.324;2023-04-08T12:54:03;98854.16;;;16.78;40.71
9740;BME280;4909;42.680;26.324;2023-04-08T12:56:30;98828.81;;;16.56;41.83
9740;BME280;4909;42.680;26.324;2023-04-08T12:58:57;98850.03;;;16.32;41.86
9740;BME280;4909;42.680;26.324;2023-04-08T13:01:25;98846.81;;;15.98;42.09
9740;BME280;4909;42.680;26.324;2023-04-08T13:03:52;98843.19;;;15.57;42.40
9740;BME280;4909;42.680;26.324;2023-04-08T13:06:19;98833.84;;;15.92;42.20
9740;BME280;4909;42.680;26.324;2023-04-08T13:08:46;98848.91;;;16.22;42.09
9740;BME280;4909;42.680;26.324;2023-04-08T13:11:14;98845.06;;;16.40;41.46
9740;BME280;4909;42.680;26.324;2023-04-08T13:13:41;98851.72;;;15.92;42.61
9740;BME280;4909;42.680;26.324;2023-04-08T13:16:08;98853.72;;;15.74;43.16